createdAt,value
2023-06-05T00:02:13.600Z,59.90
2023-06-05T00:04:41.688Z,60.22
2023-06-05T00:07:08.521Z,60.28
2023-06-05T00:09:35.600Z,59.91
2023-06-05T00:12:02.871Z,60.87
2023-06-05T00:14:29.707Z,61.26
2023-06-05T00:16:58.273Z,60.78
2023-06-05T00:19:25.266Z,60.42
2023-06-05T00:21:53.777Z,60.99
2023-06-05T00:24:20.862Z,61.76
2023-06-05T00:26:48.366Z,61.79
2023-06-05T00:29:16.161Z,61.88
2023-06-05T00:31:47.240Z,61.84
2023-06-05T00:34:15.090Z,61.97
2023-06-05T00:36:41.986Z,62.13
2023-06-05T00:39:09.866Z,62.86
2023-06-05T00:41:42.732Z,63.29
2023-06-05T00:44:09.754Z,63.04
2023-06-05T00:46:36.638Z,62.60
2023-06-05T00:49:03.549Z,62.09
2023-06-05T00:51:30.975Z,61.79
2023-06-05T00:53:58.560Z,60.65
2023-06-05T00:56:25.648Z,60.82
2023-06-05T00:58:55.839Z,61.51
2023-06-05T01:01:25.169Z,63.10
2023-06-05T01:03:53.651Z,63.52
2023-06-05T01:06:20.816Z,63.71
2023-06-05T01:08:49.341Z,63.45
2023-06-05T01:11:44.270Z,63.00
2023-06-05T01:14:28.709Z,63.62
2023-06-05T01:16:57.912Z,64.48
2023-06-05T01:19:26.043Z,64.58
2023-06-05T01:21:53.484Z,63.88
2023-06-05T01:24:23.555Z,64.14
2023-06-05T01:27:01.968Z,64.40
2023-06-05T01:29:54.152Z,64.18
2023-06-05T01:32:48.288Z,63.60
2023-06-05T01:35:18.164Z,63.05
2023-06-05T01:37:49.856Z,63.09
2023-06-05T01:40:25.594Z,63.42
2023-06-05T01:42:56.404Z,63.32
2023-06-05T01:45:24.159Z,63.31
2023-06-05T01:47:55.851Z,62.85
2023-06-05T01:50:23.047Z,63.26
2023-06-05T01:52:50.419Z,64.34
2023-06-05T01:55:27.882Z,64.56
2023-06-05T01:57:55.056Z,63.95
2023-06-05T02:00:22.192Z,64.42
2023-06-05T02:02:51.107Z,64.80
2023-06-05T02:05:20.967Z,65.75
2023-06-05T02:07:54.388Z,65.85
2023-06-05T02:10:21.975Z,65.88
2023-06-05T02:12:48.893Z,66.56
2023-06-05T02:15:16.462Z,67.44
2023-06-05T02:17:54.748Z,67.53
2023-06-05T02:20:26.470Z,67.57
2023-06-05T02:22:53.656Z,67.85
2023-06-05T02:25:22.103Z,67.71
2023-06-05T02:27:49.016Z,67.91
2023-06-05T02:30:16.277Z,68.37
2023-06-05T02:32:44.825Z,68.29
2023-06-05T02:35:13.508Z,68.39
2023-06-05T02:37:45.523Z,68.86
2023-06-05T02:40:14.305Z,69.26
2023-06-05T02:42:42.294Z,69.35
2023-06-05T02:45:10.569Z,69.80
2023-06-05T02:47:38.123Z,69.03
2023-06-05T02:50:08.386Z,68.75
2023-06-05T02:52:36.504Z,69.14
2023-06-05T02:55:04.773Z,69.22
2023-06-05T02:57:32.100Z,69.26
2023-06-05T02:59:58.873Z,69.31
2023-06-05T03:02:28.355Z,68.54
2023-06-05T03:04:56.618Z,68.26
2023-06-05T03:07:23.914Z,68.65
2023-06-05T03:09:50.834Z,69.42
2023-06-05T03:12:17.708Z,68.82
2023-06-05T03:14:44.553Z,68.66
2023-06-05T03:17:11.542Z,69.39
2023-06-05T03:19:38.394Z,69.77
2023-06-05T03:22:06.204Z,69.43
2023-06-05T03:24:33.065Z,68.90
2023-06-05T03:27:00.158Z,68.27
2023-06-05T03:29:27.441Z,67.91
2023-06-05T03:31:54.235Z,67.70
2023-06-05T03:34:23.677Z,68.39
2023-06-05T03:36:52.338Z,68.68
2023-06-05T03:39:19.382Z,69.40
2023-06-05T03:41:46.177Z,69.62
2023-06-05T03:44:13.225Z,70.08
2023-06-05T03:46:40.060Z,70.42
2023-06-05T03:49:09.962Z,70.99
2023-06-05T03:51:37.233Z,71.76
2023-06-05T03:54:04.653Z,71.54
2023-06-05T03:56:35.446Z,71.57
2023-06-05T03:59:09.966Z,71.82
2023-06-05T04:01:40.062Z,71.63
2023-06-05T04:04:08.293Z,71.75
2023-06-05T04:06:35.793Z,70.94
2023-06-05T04:09:03.374Z,71.01
2023-06-05T04:11:31.809Z,71.47
2023-06-05T04:13:58.586Z,71.33
2023-06-05T04:16:26.115Z,71.80
2023-06-05T04:18:52.892Z,71.70
2023-06-05T04:21:19.730Z,72.02
2023-06-05T04:23:46.686Z,71.84
2023-06-05T04:26:14.763Z,72.26
2023-06-05T04:28:43.217Z,72.29
2023-06-05T04:31:10.879Z,71.90
2023-06-05T04:33:38.116Z,71.74
2023-06-05T04:36:06.459Z,71.63
2023-06-05T04:38:33.419Z,71.56
2023-06-05T04:41:00.229Z,71.72
2023-06-05T04:43:27.140Z,71.71
2023-06-05T04:45:55.130Z,71.48
2023-06-05T04:48:22.032Z,71.67
2023-06-05T04:50:49.523Z,72.14
2023-06-05T04:53:18.229Z,71.75
2023-06-05T04:55:46.629Z,71.63
2023-06-05T04:58:13.579Z,71.04
2023-06-05T05:00:40.760Z,71.53
2023-06-05T05:03:07.782Z,71.96
2023-06-05T05:05:37.441Z,72.11
2023-06-05T05:08:05.920Z,71.48
2023-06-05T05:10:33.436Z,71.23
2023-06-05T05:13:03.145Z,69.63
2023-06-05T05:15:30.279Z,69.60
2023-06-05T05:17:57.889Z,69.21
2023-06-05T05:20:24.915Z,69.63
2023-06-05T05:22:53.573Z,69.98
2023-06-05T05:25:20.575Z,70.39
2023-06-05T05:27:47.408Z,70.07
2023-06-05T05:30:14.753Z,69.53
2023-06-05T05:32:41.842Z,69.67
2023-06-05T05:35:09.367Z,69.75
2023-06-05T05:37:36.236Z,69.53
2023-06-05T05:40:04.834Z,68.99
2023-06-05T05:42:31.730Z,68.75
2023-06-05T05:44:58.492Z,68.62
2023-06-05T05:47:25.349Z,68.28
2023-06-05T05:49:52.192Z,68.31
2023-06-05T05:52:21.467Z,68.36
2023-06-05T05:54:48.370Z,68.02
2023-06-05T05:57:15.505Z,67.85
2023-06-05T05:59:45.343Z,67.48
2023-06-05T06:02:13.528Z,67.58
2023-06-05T06:04:41.684Z,67.56
2023-06-05T06:07:09.529Z,67.69
2023-06-05T06:09:36.659Z,67.11
2023-06-05T06:12:06.850Z,66.55
2023-06-05T06:14:34.785Z,66.12
2023-06-05T06:17:03.110Z,66.35
2023-06-05T06:19:30.047Z,66.26
2023-06-05T06:21:56.970Z,66.25
2023-06-05T06:24:24.831Z,65.83
2023-06-05T06:26:53.378Z,65.14
2023-06-05T06:29:22.048Z,64.26
2023-06-05T06:31:48.879Z,63.33
2023-06-05T06:34:15.706Z,62.87
2023-06-05T06:36:45.282Z,62.01
2023-06-05T06:39:13.852Z,61.33
2023-06-05T06:41:40.838Z,60.91
2023-06-05T06:44:07.785Z,60.51
2023-06-05T06:46:34.652Z,60.12
2023-06-05T06:49:01.664Z,59.80
2023-06-05T06:51:28.780Z,58.84
2023-06-05T06:53:55.931Z,58.41
2023-06-05T06:56:22.746Z,58.44
2023-06-05T06:58:49.834Z,57.80
2023-06-05T07:01:16.751Z,57.53
2023-06-05T07:03:44.850Z,56.74
2023-06-05T07:06:13.011Z,56.15
2023-06-05T07:08:40.154Z,56.18
2023-06-05T07:11:08.107Z,55.65
2023-06-05T07:13:35.138Z,54.82
2023-06-05T07:16:02.018Z,54.94
2023-06-05T07:18:29.815Z,54.39
2023-06-05T07:20:56.692Z,54.39
2023-06-05T07:23:24.668Z,53.70
2023-06-05T07:25:52.597Z,53.06
2023-06-05T07:28:19.646Z,52.53
2023-06-05T07:30:46.570Z,52.33
2023-06-05T07:33:28.529Z,51.81
2023-06-05T07:35:56.569Z,51.56
2023-06-05T07:38:23.451Z,50.98
2023-06-05T07:40:50.313Z,51.00
2023-06-05T07:43:18.901Z,50.12
2023-06-05T07:45:45.928Z,49.68
2023-06-05T07:48:12.836Z,49.66
2023-06-05T07:50:39.708Z,48.87
2023-06-05T07:53:06.522Z,48.52
2023-06-05T07:55:33.405Z,48.40
2023-06-05T07:58:00.720Z,47.21
2023-06-05T08:00:31.053Z,47.10
2023-06-05T08:02:58.525Z,46.42
2023-06-05T08:05:25.536Z,46.38
2023-06-05T08:07:52.449Z,45.91
2023-06-05T08:10:19.291Z,45.60
2023-06-05T08:12:46.256Z,45.15
2023-06-05T08:15:13.322Z,44.79
2023-06-05T08:17:40.198Z,44.32
2023-06-05T08:20:10.051Z,43.98
2023-06-05T08:22:37.806Z,44.00
2023-06-05T08:25:05.552Z,42.88
2023-06-05T08:27:32.387Z,42.87
2023-06-05T08:30:00.732Z,41.11
2023-06-05T08:32:27.583Z,41.58
2023-06-05T08:34:54.651Z,42.79
2023-06-05T08:37:21.546Z,41.65
2023-06-05T08:39:49.626Z,40.76
2023-06-05T08:42:19.466Z,40.91
2023-06-05T08:45:01.801Z,39.51
2023-06-05T08:47:31.732Z,39.58
2023-06-05T08:50:04.230Z,41.90
2023-06-05T08:52:38.295Z,41.55
2023-06-05T08:55:06.856Z,40.25
2023-06-05T08:57:37.528Z,41.09
2023-06-05T09:00:08.865Z,40.74
2023-06-05T09:02:38.111Z,41.06
2023-06-05T09:05:05.933Z,40.56
2023-06-05T09:07:33.951Z,41.05
2023-06-05T09:10:01.057Z,40.39
2023-06-05T09:12:28.054Z,41.39
2023-06-05T09:14:57.011Z,41.57
2023-06-05T09:17:26.270Z,42.14
2023-06-05T09:19:53.515Z,41.53
2023-06-05T09:22:35.613Z,41.70
2023-06-05T09:25:03.285Z,42.29
2023-06-05T09:27:30.216Z,41.62
2023-06-05T09:30:06.006Z,42.25
2023-06-05T09:32:32.975Z,41.67
2023-06-05T09:35:02.257Z,42.12
2023-06-05T09:37:37.596Z,41.82
2023-06-05T09:40:09.879Z,41.65
2023-06-05T09:42:36.804Z,41.75
2023-06-05T09:45:05.576Z,41.49
2023-06-05T09:47:42.184Z,42.17
2023-06-05T09:50:28.212Z,41.95
2023-06-05T09:52:59.643Z,42.42
2023-06-05T09:55:27.172Z,42.05
2023-06-05T09:58:00.798Z,42.98
2023-06-05T10:00:29.271Z,43.04
2023-06-05T10:02:59.239Z,42.32
2023-06-05T10:05:27.640Z,42.23
2023-06-05T10:07:55.565Z,42.79
2023-06-05T10:10:23.654Z,42.70
2023-06-05T10:12:51.086Z,42.88
2023-06-05T10:15:18.981Z,42.85
2023-06-05T10:17:49.586Z,41.70
2023-06-05T10:20:17.366Z,42.60
2023-06-05T10:22:48.003Z,44.20
2023-06-05T10:25:17.389Z,44.35
2023-06-05T10:27:57.785Z,44.20
2023-06-05T10:31:06.478Z,43.80
2023-06-05T10:34:24.391Z,41.82
2023-06-05T10:37:56.994Z,39.75
2023-06-05T10:40:26.387Z,37.90
2023-06-05T10:42:53.349Z,38.93
2023-06-05T10:45:33.314Z,36.42
2023-06-05T10:48:02.855Z,36.57
2023-06-05T10:50:32.618Z,35.55
2023-06-05T10:52:59.697Z,33.10
2023-06-05T10:55:41.651Z,35.02
2023-06-05T10:58:14.600Z,35.03
2023-06-05T11:01:23.707Z,33.99
2023-06-05T11:04:01.366Z,32.50
2023-06-05T11:06:28.926Z,32.87
2023-06-05T11:09:16.371Z,35.30
2023-06-05T11:12:00.804Z,34.14
2023-06-05T11:14:48.952Z,32.86
2023-06-05T11:17:44.771Z,33.15
2023-06-05T11:20:29.946Z,32.52
2023-06-05T11:23:00.413Z,32.18
2023-06-05T11:25:29.725Z,30.41
2023-06-05T11:28:09.133Z,30.23
2023-06-05T11:30:49.513Z,30.60
2023-06-05T11:33:20.230Z,29.22
2023-06-05T11:35:50.171Z,30.38
2023-06-05T11:38:23.033Z,28.63
2023-06-05T11:40:51.643Z,28.45
2023-06-05T11:43:18.816Z,29.82
2023-06-05T11:45:54.365Z,30.40
2023-06-05T11:48:22.014Z,30.48
2023-06-05T11:51:07.075Z,28.80
2023-06-05T11:53:34.895Z,27.90
2023-06-05T11:56:04.588Z,27.44
2023-06-05T11:58:37.168Z,26.60
2023-06-05T12:01:18.929Z,26.08
2023-06-05T12:03:48.153Z,26.07
2023-06-05T12:06:18.593Z,25.23
2023-06-05T12:08:49.512Z,25.13
2023-06-05T12:11:22.565Z,25.09
2023-06-05T12:13:54.343Z,24.66
2023-06-05T12:16:33.902Z,24.30
2023-06-05T12:19:14.603Z,24.13
2023-06-05T12:21:48.304Z,23.73
2023-06-05T12:24:16.178Z,22.83
2023-06-05T12:26:56.516Z,23.11
2023-06-05T12:29:30.732Z,22.65
2023-06-05T12:31:59.754Z,22.60
2023-06-05T12:34:59.188Z,22.75
2023-06-05T12:37:38.413Z,21.88
2023-06-05T12:40:11.842Z,22.27
2023-06-05T12:42:41.890Z,22.17
2023-06-05T12:45:10.994Z,22.00
2023-06-05T12:47:39.053Z,20.92
2023-06-05T12:50:08.476Z,21.52
2023-06-05T12:52:35.529Z,22.03
2023-06-05T12:55:04.142Z,21.80
2023-06-05T12:57:32.959Z,21.38
2023-06-05T12:59:59.827Z,21.90
2023-06-05T13:02:27.006Z,22.93
2023-06-05T13:04:53.947Z,24.54
2023-06-05T13:07:22.738Z,24.68
2023-06-05T13:09:51.396Z,22.79
2023-06-05T13:12:18.206Z,22.82
2023-06-05T13:14:45.043Z,21.87
2023-06-05T13:17:12.033Z,21.65
2023-06-05T13:19:39.214Z,22.28
2023-06-05T13:22:07.048Z,21.68
2023-06-05T13:24:33.925Z,21.12
2023-06-05T13:27:00.943Z,21.10
2023-06-05T13:29:27.924Z,21.30
2023-06-05T13:31:54.826Z,20.71
2023-06-05T13:34:21.758Z,20.37
2023-06-05T13:36:48.715Z,20.80
2023-06-05T13:39:17.676Z,20.01
2023-06-05T13:41:44.599Z,20.61
2023-06-05T13:44:11.451Z,20.45
2023-06-05T13:46:38.430Z,21.37
2023-06-05T13:49:05.276Z,20.95
2023-06-05T13:51:32.088Z,20.95
2023-06-05T13:53:58.950Z,20.85
2023-06-05T13:56:26.573Z,19.78
2023-06-05T13:58:53.727Z,20.67
2023-06-05T14:01:20.958Z,20.97
2023-06-05T14:03:49.080Z,20.66
2023-06-05T14:06:18.924Z,20.29
2023-06-05T14:08:46.577Z,20.65
2023-06-05T14:11:14.115Z,20.41
2023-06-05T14:13:42.325Z,20.78
2023-06-05T14:16:13.775Z,20.10
2023-06-05T14:18:40.941Z,20.78
2023-06-05T14:21:07.983Z,20.53
2023-06-05T14:23:35.297Z,20.96
2023-06-05T14:26:02.237Z,20.67
2023-06-05T14:28:29.522Z,20.98
2023-06-05T14:30:56.548Z,20.75
2023-06-05T14:33:23.409Z,20.79
2023-06-05T14:35:50.458Z,20.81
2023-06-05T14:38:17.324Z,20.59
2023-06-05T14:40:44.250Z,20.69
2023-06-05T14:43:11.096Z,20.63
2023-06-05T14:45:37.978Z,21.33
2023-06-05T14:48:05.085Z,20.99
2023-06-05T14:50:32.035Z,20.13
2023-06-05T14:52:58.880Z,20.39
2023-06-05T14:55:25.764Z,20.36
2023-06-05T14:57:52.858Z,20.70
2023-06-05T15:00:20.624Z,20.83
2023-06-05T15:02:47.573Z,21.04
2023-06-05T15:05:15.445Z,20.63
2023-06-05T15:07:44.091Z,20.74
2023-06-05T15:10:14.058Z,21.10
2023-06-05T15:12:41.502Z,21.03
2023-06-05T15:17:39.982Z,20.85
2023-06-05T15:20:07.493Z,20.33
2023-06-05T15:22:34.764Z,20.38
2023-06-05T15:25:01.686Z,20.83
2023-06-05T15:27:28.547Z,20.79
2023-06-05T15:29:55.538Z,21.05
2023-06-05T15:32:22.512Z,20.73
2023-06-05T15:34:49.504Z,20.49
2023-06-05T15:37:16.384Z,20.73
2023-06-05T15:39:43.806Z,20.86
2023-06-05T15:42:10.840Z,20.50
2023-06-05T15:44:40.870Z,21.02
2023-06-05T15:47:08.730Z,20.78
2023-06-05T15:49:35.888Z,21.27
2023-06-05T15:52:02.809Z,21.62
2023-06-05T15:54:53.448Z,22.23
2023-06-05T15:57:18.336Z,22.45
2023-06-05T15:59:51.338Z,22.95
2023-06-05T16:02:18.285Z,23.43
2023-06-05T16:04:45.627Z,23.51
2023-06-05T16:07:12.481Z,23.54
2023-06-05T16:09:39.394Z,23.61
2023-06-05T16:12:06.713Z,24.05
2023-06-05T16:14:33.518Z,24.04
2023-06-05T16:17:02.873Z,24.66
2023-06-05T16:19:32.408Z,24.10
2023-06-05T16:21:59.628Z,24.70
2023-06-05T16:24:26.454Z,24.67
2023-06-05T16:26:54.160Z,24.63
2023-06-05T16:29:21.504Z,24.30
2023-06-05T16:31:49.058Z,23.55
2023-06-05T16:34:16.378Z,24.43
2023-06-05T16:36:43.569Z,23.86
2023-06-05T16:39:15.813Z,23.67
2023-06-05T16:41:46.057Z,24.24
2023-06-05T16:44:14.251Z,24.75
2023-06-05T16:46:44.327Z,24.53
2023-06-05T16:49:13.419Z,24.49
2023-06-05T16:51:40.343Z,24.41
2023-06-05T16:54:07.996Z,24.99
2023-06-05T16:56:35.386Z,24.87
2023-06-05T16:59:10.705Z,25.06
2023-06-05T17:01:37.835Z,25.85
2023-06-05T17:04:05.464Z,25.65
2023-06-05T17:06:33.072Z,26.05
2023-06-05T17:09:01.111Z,25.11
2023-06-05T17:11:28.623Z,25.03
2023-06-05T17:13:55.906Z,25.72
2023-06-05T17:16:22.966Z,25.66
2023-06-05T17:18:49.899Z,26.25
2023-06-05T17:21:17.105Z,26.21
2023-06-05T17:23:44.250Z,26.28
2023-06-05T17:26:11.354Z,26.56
2023-06-05T17:28:38.355Z,26.81
2023-06-05T17:31:06.998Z,27.16
2023-06-05T17:33:34.140Z,27.12
2023-06-05T17:36:01.120Z,27.47
2023-06-05T17:38:28.442Z,27.13
2023-06-05T17:40:55.252Z,28.22
2023-06-05T17:43:22.121Z,27.92
2023-06-05T17:45:49.024Z,27.36
2023-06-05T17:48:16.001Z,27.69
2023-06-05T17:50:44.050Z,27.77
2023-06-05T17:53:12.207Z,27.73
2023-06-05T17:55:41.548Z,27.67
2023-06-05T17:58:08.508Z,27.91
2023-06-05T18:00:37.453Z,28.22
2023-06-05T18:03:04.776Z,27.69
2023-06-05T18:05:31.963Z,28.39
2023-06-05T18:07:58.984Z,27.80
2023-06-05T18:10:25.973Z,28.11
2023-06-05T18:12:53.122Z,28.04
2023-06-05T18:15:20.508Z,28.72
2023-06-05T18:17:49.994Z,29.04
2023-06-05T18:20:17.678Z,28.42
2023-06-05T18:22:44.480Z,29.38
2023-06-05T18:25:14.385Z,28.98
2023-06-05T18:27:41.287Z,29.67
2023-06-05T18:30:13.725Z,29.42
2023-06-05T18:32:40.666Z,29.58
2023-06-05T18:35:08.889Z,30.11
2023-06-05T18:37:36.044Z,30.24
2023-06-05T18:40:02.897Z,30.12
2023-06-05T18:42:29.676Z,30.21
2023-06-05T18:44:59.614Z,30.72
2023-06-05T18:47:27.563Z,30.80
2023-06-05T18:49:54.420Z,30.94
2023-06-05T18:52:21.354Z,31.59
2023-06-05T18:54:48.741Z,32.20
2023-06-05T18:57:17.377Z,32.62
2023-06-05T18:59:44.182Z,33.24
2023-06-05T19:02:11.494Z,33.74
2023-06-05T19:04:39.965Z,34.21
2023-06-05T19:07:06.950Z,34.96
2023-06-05T19:09:33.863Z,35.53
2023-06-05T19:12:00.925Z,36.15
2023-06-05T19:14:27.931Z,36.14
2023-06-05T19:16:54.747Z,36.70
2023-06-05T19:19:24.281Z,36.73
2023-06-05T19:21:51.157Z,37.21
2023-06-05T19:24:18.424Z,38.25
2023-06-05T19:26:54.347Z,38.77
2023-06-05T19:29:21.218Z,38.63
2023-06-05T19:31:48.183Z,39.32
2023-06-05T19:34:15.282Z,39.63
2023-06-05T19:36:42.359Z,39.66
2023-06-05T19:39:09.312Z,39.63
2023-06-05T19:41:36.218Z,40.03
2023-06-05T19:44:05.399Z,40.27
2023-06-05T19:46:37.653Z,40.60
2023-06-05T19:49:05.117Z,41.20
2023-06-05T19:51:31.907Z,41.02
2023-06-05T19:54:01.517Z,41.53
2023-06-05T19:56:28.402Z,41.37
2023-06-05T19:58:55.362Z,41.99
2023-06-05T20:01:22.473Z,42.45
2023-06-05T20:03:49.445Z,42.98
2023-06-05T20:06:17.062Z,43.45
2023-06-05T20:08:45.159Z,43.40
2023-06-05T20:11:12.592Z,43.88
2023-06-05T20:13:40.338Z,43.74
2023-06-05T20:16:08.391Z,44.37
2023-06-05T20:18:36.677Z,44.48
2023-06-05T20:21:04.311Z,44.90
2023-06-05T20:23:31.277Z,44.94
2023-06-05T20:25:59.449Z,45.36
2023-06-05T20:28:26.791Z,45.58
2023-06-05T20:30:53.617Z,45.77
2023-06-05T20:33:20.535Z,45.25
2023-06-05T20:35:48.035Z,45.28
2023-06-05T20:38:15.214Z,45.66
2023-06-05T20:40:43.254Z,45.70
2023-06-05T20:43:10.178Z,45.40
2023-06-05T20:45:42.806Z,45.53
2023-06-05T20:48:11.373Z,45.73
2023-06-05T20:50:39.629Z,46.24
2023-06-05T20:53:06.479Z,46.55
2023-06-05T20:55:34.626Z,46.44
2023-06-05T20:58:03.705Z,46.47
2023-06-05T21:00:32.290Z,46.54
2023-06-05T21:02:59.299Z,46.79
2023-06-05T21:05:27.022Z,47.43
2023-06-05T21:07:53.874Z,47.92
2023-06-05T21:10:20.780Z,48.33
2023-06-05T21:12:47.635Z,48.82
2023-06-05T21:15:15.159Z,48.86
2023-06-05T21:17:42.760Z,49.27
2023-06-05T21:20:11.034Z,49.30
2023-06-05T21:22:38.152Z,48.97
2023-06-05T21:25:05.795Z,49.14
2023-06-05T21:27:32.717Z,48.92
2023-06-05T21:29:59.683Z,49.44
2023-06-05T21:32:28.126Z,50.47
2023-06-05T21:35:00.493Z,50.65
2023-06-05T21:37:27.398Z,51.34
2023-06-05T21:39:54.221Z,51.39
2023-06-05T21:42:21.034Z,51.48
2023-06-05T21:44:48.898Z,50.79
2023-06-05T21:47:19.533Z,50.98
2023-06-05T21:49:46.549Z,51.73
2023-06-05T21:52:14.035Z,52.31
2023-06-05T21:54:43.145Z,53.14
2023-06-05T21:57:14.824Z,53.32
2023-06-05T21:59:41.651Z,53.60
2023-06-05T22:02:09.060Z,54.17
2023-06-05T22:04:36.359Z,54.04
2023-06-05T22:07:03.641Z,54.71
2023-06-05T22:09:30.978Z,55.01
2023-06-05T22:11:59.138Z,55.02
2023-06-05T22:14:26.310Z,54.89
2023-06-05T22:16:54.023Z,55.15
2023-06-05T22:19:21.213Z,55.44
2023-06-05T22:21:49.542Z,55.20
2023-06-05T22:24:18.307Z,55.95
2023-06-05T22:26:46.547Z,56.89
2023-06-05T22:29:14.671Z,57.71
2023-06-05T22:31:41.758Z,57.78
2023-06-05T22:34:09.029Z,57.55
2023-06-05T22:36:35.988Z,58.01
2023-06-05T22:39:02.876Z,58.25
2023-06-05T22:41:31.285Z,58.36
2023-06-05T22:43:58.146Z,58.11
2023-06-05T22:46:25.151Z,58.71
2023-06-05T22:48:55.117Z,58.96
2023-06-05T22:51:25.100Z,59.60
2023-06-05T22:53:52.856Z,59.74
2023-06-05T22:56:20.031Z,59.38
2023-06-05T22:58:48.494Z,59.67
2023-06-05T23:01:18.321Z,60.44
2023-06-05T23:03:46.552Z,61.18
2023-06-05T23:06:16.261Z,60.32
2023-06-05T23:08:43.171Z,60.67
2023-06-05T23:11:10.096Z,61.11
2023-06-05T23:13:37.087Z,61.25
2023-06-05T23:16:05.875Z,61.90
2023-06-05T23:18:32.715Z,62.19
2023-06-05T23:20:59.550Z,62.16
2023-06-05T23:23:26.380Z,61.97
2023-06-05T23:25:54.282Z,61.79
2023-06-05T23:28:21.411Z,62.29
2023-06-05T23:30:48.307Z,62.63
2023-06-05T23:33:15.405Z,63.40
2023-06-05T23:35:42.284Z,64.13
2023-06-05T23:38:09.214Z,64.48
2023-06-05T23:40:36.166Z,64.42
2023-06-05T23:43:03.058Z,64.73
2023-06-05T23:45:31.792Z,64.97
2023-06-05T23:48:00.086Z,66.10
2023-06-05T23:50:27.767Z,66.82
2023-06-05T23:52:56.478Z,67.87
2023-06-05T23:55:24.364Z,68.74
2023-06-05T23:57:52.985Z,69.74
